createdAt,value
2018-08-17T00:09:47.838Z,5.90
2018-08-17T00:19:49.110Z,6.40
2018-08-17T00:29:50.366Z,7.37
2018-08-17T00:39:52.382Z,6.50
2018-08-17T00:49:54.409Z,6.30
2018-08-17T00:59:55.652Z,7.30
2018-08-17T01:09:56.902Z,6.90
2018-08-17T01:19:58.171Z,6.77
2018-08-17T01:30:00.190Z,7.10
2018-08-17T01:40:01.560Z,6.30
2018-08-17T01:50:02.834Z,8.97
2018-08-17T02:00:04.120Z,9.80
2018-08-17T02:10:05.394Z,6.80
2018-08-17T02:20:06.656Z,7.57
2018-08-17T02:30:07.930Z,8.77
2018-08-17T02:40:09.207Z,9.10
2018-08-17T02:50:10.458Z,9.07
2018-08-17T03:00:11.726Z,9.57
2018-08-17T03:10:12.976Z,7.80
2018-08-17T03:20:14.221Z,7.43
2018-08-17T03:30:16.244Z,7.53
2018-08-17T03:40:18.315Z,8.27
2018-08-17T03:50:19.601Z,7.37
2018-08-17T04:00:20.891Z,9.20
2018-08-17T04:10:22.181Z,7.50
2018-08-17T04:20:23.445Z,7.70
2018-08-17T04:30:24.717Z,7.43
2018-08-17T04:40:25.986Z,9.37
2018-08-17T04:50:27.226Z,8.50
2018-08-17T05:00:29.526Z,8.27
2018-08-17T05:10:30.776Z,7.47
2018-08-17T05:20:32.042Z,8.93
2018-08-17T05:30:34.072Z,9.77
2018-08-17T05:40:35.635Z,7.63
2018-08-17T05:50:37.916Z,8.67
2018-08-17T06:00:39.578Z,8.60
2018-08-17T06:10:40.969Z,8.97
2018-08-17T06:20:42.566Z,8.30
2018-08-17T06:30:44.432Z,10.47
2018-08-17T06:40:45.908Z,10.97
2018-08-17T06:50:47.223Z,9.47
2018-08-17T07:00:48.402Z,11.70
2018-08-17T07:10:49.653Z,8.40
2018-08-17T07:20:52.039Z,9.73
2018-08-17T07:30:53.319Z,7.80
2018-08-17T07:40:54.583Z,7.73
2018-08-17T07:50:55.904Z,8.30
2018-08-17T08:00:57.178Z,7.87
2018-08-17T08:10:58.488Z,7.43
2018-08-17T08:20:59.705Z,4.20
2018-08-17T08:31:00.949Z,3.55
2018-08-17T08:41:02.219Z,6.15
2018-08-17T08:51:04.237Z,4.30
2018-08-17T09:01:05.490Z,5.05
2018-08-17T09:11:06.753Z,3.83
2018-08-17T09:21:08.031Z,3.15
2018-08-17T09:31:09.296Z,4.00
2018-08-17T09:41:11.327Z,2.25
2018-08-17T09:51:12.616Z,3.00
2018-08-17T10:01:13.866Z,2.15
2018-08-17T10:11:15.145Z,3.95
2018-08-17T10:21:16.556Z,4.10
2018-08-17T10:31:18.462Z,3.58
2018-08-17T10:41:19.707Z,2.58
2018-08-17T10:51:21.720Z,3.50
2018-08-17T11:01:23.731Z,3.03
2018-08-17T11:11:25.754Z,2.70
2018-08-17T11:21:27.825Z,2.35
2018-08-17T11:31:29.088Z,2.80
2018-08-17T11:41:30.510Z,3.12
2018-08-17T11:51:31.672Z,2.60
2018-08-17T12:01:33.741Z,2.50
2018-08-17T12:11:35.001Z,2.83
2018-08-17T12:21:36.279Z,4.45
2018-08-17T12:31:37.542Z,2.90
2018-08-17T12:41:39.544Z,3.35
2018-08-17T12:51:40.807Z,3.30
2018-08-17T13:01:42.099Z,3.55
2018-08-17T13:11:43.380Z,3.35
2018-08-17T13:21:44.652Z,3.30
2018-08-17T13:31:46.678Z,2.92
2018-08-17T13:41:47.938Z,2.72
2018-08-17T13:51:49.199Z,2.85
2018-08-17T14:01:50.459Z,3.10
2018-08-17T14:11:51.737Z,3.00
2018-08-17T14:21:53.747Z,2.80
2018-08-17T14:31:55.758Z,3.85
2018-08-17T14:41:57.775Z,3.92
2018-08-17T14:51:59.771Z,3.97
2018-08-17T15:02:01.015Z,3.90
2018-08-17T15:12:02.283Z,5.45
2018-08-17T15:22:04.299Z,3.75
2018-08-17T15:32:06.441Z,5.35
2018-08-17T15:42:07.718Z,3.65
2018-08-17T15:52:09.039Z,3.60
2018-08-17T16:02:11.031Z,3.85
2018-08-17T16:12:12.293Z,3.60
2018-08-17T16:22:13.581Z,4.32
2018-08-17T16:32:14.827Z,4.22
2018-08-17T16:42:16.064Z,4.72
2018-08-17T16:52:17.315Z,4.57
2018-08-17T17:02:18.567Z,4.78
2018-08-17T17:12:19.793Z,5.03
2018-08-17T17:22:21.068Z,4.80
2018-08-17T17:32:22.319Z,5.93
2018-08-17T17:42:23.587Z,5.82
2018-08-17T17:52:24.881Z,6.37
2018-08-17T18:02:26.912Z,5.90
2018-08-17T18:12:28.957Z,6.00
2018-08-17T18:22:30.216Z,6.23
2018-08-17T18:32:31.453Z,7.73
2018-08-17T18:42:32.700Z,6.43
2018-08-17T18:52:34.828Z,7.17
2018-08-17T19:02:36.003Z,7.07
2018-08-17T19:12:37.270Z,7.93
2018-08-17T19:22:38.534Z,7.73
2018-08-17T19:32:39.825Z,7.40
2018-08-17T19:42:41.099Z,8.30
2018-08-17T19:52:42.401Z,9.47
2018-08-17T20:02:43.652Z,8.87
2018-08-17T20:12:44.890Z,8.37
2018-08-17T20:22:46.146Z,8.07
2018-08-17T20:32:47.402Z,9.27
2018-08-17T20:42:48.775Z,9.90
2018-08-17T20:52:50.026Z,9.57
2018-08-17T21:02:51.324Z,10.30
2018-08-17T21:12:53.372Z,10.63
2018-08-17T21:22:54.661Z,10.03
2018-08-17T21:32:56.018Z,10.20
2018-08-17T21:42:57.321Z,11.77
2018-08-17T21:52:58.618Z,10.90
2018-08-17T22:02:59.862Z,11.33
2018-08-17T22:13:01.100Z,11.60
2018-08-17T22:23:02.380Z,10.70
2018-08-17T22:33:03.672Z,11.67
2018-08-17T22:43:04.907Z,11.40
2018-08-17T22:53:06.254Z,12.73
2018-08-17T23:03:08.296Z,14.93
2018-08-17T23:13:09.584Z,11.67
2018-08-17T23:23:10.889Z,11.97
2018-08-17T23:33:12.186Z,12.47
2018-08-17T23:43:13.466Z,13.10
2018-08-17T23:53:14.709Z,12.73
